sensor_id;sensor_type;location;lat;lon;timestamp;P1;durP1;ratioP1;P2;durP2;ratioP2
52974;SDS011;38839;45.186;5.720;2023-07-22T00:01:50;3.45;;;1.60;;
52974;SDS011;38839;45.186;5.720;2023-07-22T00:04:15;3.83;;;1.70;;
52974;SDS011;38839;45.186;5.720;2023-07-22T00:06:40;2.05;;;1.45;;
52974;SDS011;38839;45.186;5.720;2023-07-22T00:09:06;2.22;;;1.58;;
52974;SDS011;38839;45.186;5.720;2023-07-22T00:11:31;3.42;;;1.70;;
52974;SDS011;38839;45.186;5.720;2023-07-22T00:13:57;1.85;;;1.50;;
52974;SDS011;38839;45.186;5.720;2023-07-22T00:16:22;1.63;;;1.52;;
52974;SDS011;38839;45.186;5.720;2023-07-22T00:18:48;1.60;;;1.40;;
52974;SDS011;38839;45.186;5.720;2023-07-22T00:21:13;6.75;;;1.77;;
52974;SDS011;38839;45.186;5.720;2023-07-22T00:23:39;1.65;;;1.52;;
52974;SDS011;38839;45.186;5.720;2023-07-22T00:26:05;5.55;;;1.60;;
52974;SDS011;38839;45.186;5.720;2023-07-22T00:28:30;2.63;;;1.50;;
52974;SDS011;38839;45.186;5.720;2023-07-22T00:30:55;2.25;;;1.60;;
52974;SDS011;38839;45.186;5.720;2023-07-22T00:33:22;2.15;;;1.50;;
52974;SDS011;38839;45.186;5.720;2023-07-22T00:35:48;1.98;;;1.38;;
52974;SDS011;38839;45.186;5.720;2023-07-22T00:38:17;1.88;;;1.50;;
52974;SDS011;38839;45.186;5.720;2023-07-22T00:40:42;2.22;;;1.40;;
52974;SDS011;38839;45.186;5.720;2023-07-22T00:43:08;1.85;;;1.50;;
52974;SDS011;38839;45.186;5.720;2023-07-22T00:45:34;5.50;;;1.60;;
52974;SDS011;38839;45.186;5.720;2023-07-22T00:47:59;5.32;;;1.70;;
52974;SDS011;38839;45.186;5.720;2023-07-22T00:50:25;1.65;;;1.55;;
52974;SDS011;38839;45.186;5.720;2023-07-22T00:52:52;2.47;;;1.45;;
52974;SDS011;38839;45.186;5.720;2023-07-22T00:55:17;2.25;;;1.58;;
52974;SDS011;38839;45.186;5.720;2023-07-22T00:57:43;2.63;;;1.70;;
52974;SDS011;38839;45.186;5.720;2023-07-22T01:00:09;2.55;;;1.65;;
52974;SDS011;38839;45.186;5.720;2023-07-22T01:02:37;2.40;;;1.60;;
52974;SDS011;38839;45.186;5.720;2023-07-22T01:05:03;1.85;;;1.50;;
52974;SDS011;38839;45.186;5.720;2023-07-22T01:07:29;1.98;;;1.38;;
52974;SDS011;38839;45.186;5.720;2023-07-22T01:09:55;2.75;;;1.60;;
52974;SDS011;38839;45.186;5.720;2023-07-22T01:12:21;3.30;;;1.60;;
52974;SDS011;38839;45.186;5.720;2023-07-22T01:14:47;2.65;;;1.45;;
52974;SDS011;38839;45.186;5.720;2023-07-22T01:17:12;1.42;;;1.30;;
52974;SDS011;38839;45.186;5.720;2023-07-22T01:19:38;3.58;;;1.65;;
52974;SDS011;38839;45.186;5.720;2023-07-22T01:22:05;1.75;;;1.40;;
52974;SDS011;38839;45.186;5.720;2023-07-22T01:24:35;2.10;;;1.73;;
52974;SDS011;38839;45.186;5.720;2023-07-22T01:27:03;2.15;;;1.50;;
52974;SDS011;38839;45.186;5.720;2023-07-22T01:29:35;2.45;;;1.60;;
52974;SDS011;38839;45.186;5.720;2023-07-22T01:32:02;1.77;;;1.60;;
52974;SDS011;38839;45.186;5.720;2023-07-22T01:34:27;3.92;;;1.55;;
52974;SDS011;38839;45.186;5.720;2023-07-22T01:36:53;4.13;;;1.38;;
52974;SDS011;38839;45.186;5.720;2023-07-22T01:39:19;2.92;;;1.70;;
52974;SDS011;38839;45.186;5.720;2023-07-22T01:41:45;3.35;;;1.80;;
52974;SDS011;38839;45.186;5.720;2023-07-22T01:44:10;1.77;;;1.50;;
52974;SDS011;38839;45.186;5.720;2023-07-22T01:46:39;6.47;;;1.55;;
52974;SDS011;38839;45.186;5.720;2023-07-22T01:49:05;3.03;;;1.60;;
52974;SDS011;38839;45.186;5.720;2023-07-22T01:51:35;4.65;;;1.60;;
52974;SDS011;38839;45.186;5.720;2023-07-22T01:54:05;6.07;;;1.63;;
52974;SDS011;38839;45.186;5.720;2023-07-22T01:56:30;2.20;;;1.80;;
52974;SDS011;38839;45.186;5.720;2023-07-22T01:58:56;2.92;;;1.75;;
52974;SDS011;38839;45.186;5.720;2023-07-22T02:01:21;2.47;;;1.58;;
52974;SDS011;38839;45.186;5.720;2023-07-22T02:03:47;2.08;;;1.50;;
52974;SDS011;38839;45.186;5.720;2023-07-22T02:06:12;2.75;;;1.58;;
52974;SDS011;38839;45.186;5.720;2023-07-22T02:08:38;3.17;;;1.42;;
52974;SDS011;38839;45.186;5.720;2023-07-22T02:11:04;2.17;;;1.48;;
52974;SDS011;38839;45.186;5.720;2023-07-22T02:13:31;2.10;;;1.38;;
52974;SDS011;38839;45.186;5.720;2023-07-22T02:15:57;4.18;;;1.73;;
52974;SDS011;38839;45.186;5.720;2023-07-22T02:18:23;2.40;;;1.60;;
52974;SDS011;38839;45.186;5.720;2023-07-22T02:20:49;1.63;;;1.48;;
52974;SDS011;38839;45.186;5.720;2023-07-22T02:23:14;2.38;;;1.85;;
52974;SDS011;38839;45.186;5.720;2023-07-22T02:25:40;2.20;;;1.42;;
52974;SDS011;38839;45.186;5.720;2023-07-22T02:28:05;1.83;;;1.60;;
52974;SDS011;38839;45.186;5.720;2023-07-22T02:30:33;4.25;;;1.67;;
52974;SDS011;38839;45.186;5.720;2023-07-22T02:32:59;3.42;;;1.50;;
52974;SDS011;38839;45.186;5.720;2023-07-22T02:35:25;2.45;;;1.70;;
52974;SDS011;38839;45.186;5.720;2023-07-22T02:37:51;2.80;;;1.92;;
52974;SDS011;38839;45.186;5.720;2023-07-22T02:40:16;3.03;;;1.58;;
52974;SDS011;38839;45.186;5.720;2023-07-22T02:42:41;2.28;;;1.60;;
52974;SDS011;38839;45.186;5.720;2023-07-22T02:45:07;1.83;;;1.40;;
52974;SDS011;38839;45.186;5.720;2023-07-22T02:47:33;1.67;;;1.42;;
52974;SDS011;38839;45.186;5.720;2023-07-22T02:49:59;3.17;;;1.50;;
52974;SDS011;38839;45.186;5.720;2023-07-22T02:52:25;3.45;;;1.60;;
52974;SDS011;38839;45.186;5.720;2023-07-22T02:57:32;3.72;;;1.80;;
52974;SDS011;38839;45.186;5.720;2023-07-22T02:59:57;2.58;;;1.67;;
52974;SDS011;38839;45.186;5.720;2023-07-22T03:02:22;2.10;;;1.52;;
52974;SDS011;38839;45.186;5.720;2023-07-22T03:04:48;2.95;;;1.90;;
52974;SDS011;38839;45.186;5.720;2023-07-22T03:07:13;2.95;;;1.63;;
52974;SDS011;38839;45.186;5.720;2023-07-22T03:09:39;2.20;;;1.52;;
52974;SDS011;38839;45.186;5.720;2023-07-22T03:12:05;1.98;;;1.30;;
52974;SDS011;38839;45.186;5.720;2023-07-22T03:14:30;2.53;;;1.25;;
52974;SDS011;38839;45.186;5.720;2023-07-22T03:17:01;3.30;;;1.83;;
52974;SDS011;38839;45.186;5.720;2023-07-22T03:19:28;2.05;;;1.58;;
52974;SDS011;38839;45.186;5.720;2023-07-22T03:21:54;3.58;;;1.40;;
52974;SDS011;38839;45.186;5.720;2023-07-22T03:24:20;2.42;;;1.70;;
52974;SDS011;38839;45.186;5.720;2023-07-22T03:26:45;2.03;;;1.50;;
52974;SDS011;38839;45.186;5.720;2023-07-22T03:29:11;5.43;;;2.13;;
52974;SDS011;38839;45.186;5.720;2023-07-22T03:31:36;2.47;;;2.10;;
52974;SDS011;38839;45.186;5.720;2023-07-22T03:34:01;3.33;;;1.63;;
52974;SDS011;38839;45.186;5.720;2023-07-22T03:36:27;2.70;;;1.90;;
52974;SDS011;38839;45.186;5.720;2023-07-22T03:38:52;2.47;;;1.63;;
52974;SDS011;38839;45.186;5.720;2023-07-22T03:41:17;2.28;;;1.70;;
52974;SDS011;38839;45.186;5.720;2023-07-22T03:43:43;3.78;;;1.70;;
52974;SDS011;38839;45.186;5.720;2023-07-22T03:46:08;4.45;;;1.50;;
52974;SDS011;38839;45.186;5.720;2023-07-22T03:48:34;2.60;;;1.63;;
52974;SDS011;38839;45.186;5.720;2023-07-22T03:50:59;3.47;;;1.60;;
52974;SDS011;38839;45.186;5.720;2023-07-22T03:53:25;3.15;;;1.70;;
52974;SDS011;38839;45.186;5.720;2023-07-22T03:55:50;1.95;;;1.70;;
52974;SDS011;38839;45.186;5.720;2023-07-22T03:58:16;3.33;;;1.50;;
52974;SDS011;38839;45.186;5.720;2023-07-22T04:00:41;3.38;;;1.50;;
52974;SDS011;38839;45.186;5.720;2023-07-22T04:03:07;3.20;;;1.80;;
52974;SDS011;38839;45.186;5.720;2023-07-22T04:05:32;2.90;;;1.85;;
52974;SDS011;38839;45.186;5.720;2023-07-22T04:07:58;3.08;;;1.77;;
52974;SDS011;38839;45.186;5.720;2023-07-22T04:10:23;2.75;;;1.67;;
52974;SDS011;38839;45.186;5.720;2023-07-22T04:12:48;2.35;;;1.63;;
52974;SDS011;38839;45.186;5.720;2023-07-22T04:15:14;2.78;;;1.58;;
52974;SDS011;38839;45.186;5.720;2023-07-22T04:17:40;3.05;;;1.77;;
52974;SDS011;38839;45.186;5.720;2023-07-22T04:20:05;1.95;;;1.65;;
52974;SDS011;38839;45.186;5.720;2023-07-22T04:22:34;3.63;;;1.63;;
52974;SDS011;38839;45.186;5.720;2023-07-22T04:24:59;6.32;;;1.83;;
52974;SDS011;38839;45.186;5.720;2023-07-22T04:27:26;4.40;;;2.00;;
52974;SDS011;38839;45.186;5.720;2023-07-22T04:29:51;3.97;;;2.30;;
52974;SDS011;38839;45.186;5.720;2023-07-22T04:32:17;3.83;;;2.00;;
52974;SDS011;38839;45.186;5.720;2023-07-22T04:34:42;3.45;;;1.60;;
52974;SDS011;38839;45.186;5.720;2023-07-22T04:37:08;4.82;;;1.92;;
52974;SDS011;38839;45.186;5.720;2023-07-22T04:39:33;4.10;;;1.88;;
52974;SDS011;38839;45.186;5.720;2023-07-22T04:41:59;2.42;;;1.65;;
52974;SDS011;38839;45.186;5.720;2023-07-22T04:44:24;4.90;;;1.67;;
52974;SDS011;38839;45.186;5.720;2023-07-22T04:46:50;1.98;;;1.75;;
52974;SDS011;38839;45.186;5.720;2023-07-22T04:49:15;4.32;;;1.65;;
52974;SDS011;38839;45.186;5.720;2023-07-22T04:51:43;1.75;;;1.63;;
52974;SDS011;38839;45.186;5.720;2023-07-22T04:54:12;1.52;;;1.42;;
52974;SDS011;38839;45.186;5.720;2023-07-22T04:56:37;2.83;;;1.75;;
52974;SDS011;38839;45.186;5.720;2023-07-22T04:59:03;3.17;;;1.83;;
52974;SDS011;38839;45.186;5.720;2023-07-22T05:01:29;2.42;;;1.88;;
52974;SDS011;38839;45.186;5.720;2023-07-22T05:03:54;5.32;;;1.85;;
52974;SDS011;38839;45.186;5.720;2023-07-22T05:06:20;3.70;;;1.90;;
52974;SDS011;38839;45.186;5.720;2023-07-22T05:08:46;2.00;;;1.70;;
52974;SDS011;38839;45.186;5.720;2023-07-22T05:11:11;2.47;;;1.73;;
52974;SDS011;38839;45.186;5.720;2023-07-22T05:13:36;3.22;;;1.77;;
52974;SDS011;38839;45.186;5.720;2023-07-22T05:16:02;3.72;;;2.08;;
52974;SDS011;38839;45.186;5.720;2023-07-22T05:18:27;2.80;;;2.03;;
52974;SDS011;38839;45.186;5.720;2023-07-22T05:20:53;3.60;;;2.70;;
52974;SDS011;38839;45.186;5.720;2023-07-22T05:23:18;4.80;;;2.10;;
52974;SDS011;38839;45.186;5.720;2023-07-22T05:25:44;1.98;;;1.60;;
52974;SDS011;38839;45.186;5.720;2023-07-22T05:28:15;2.83;;;1.77;;
52974;SDS011;38839;45.186;5.720;2023-07-22T05:30:40;3.60;;;1.75;;
52974;SDS011;38839;45.186;5.720;2023-07-22T05:33:05;2.00;;;1.55;;
52974;SDS011;38839;45.186;5.720;2023-07-22T05:35:31;2.88;;;1.63;;
52974;SDS011;38839;45.186;5.720;2023-07-22T05:37:56;3.00;;;1.80;;
52974;SDS011;38839;45.186;5.720;2023-07-22T05:40:21;3.80;;;1.80;;
52974;SDS011;38839;45.186;5.720;2023-07-22T05:42:47;2.10;;;1.90;;
52974;SDS011;38839;45.186;5.720;2023-07-22T05:45:12;2.10;;;1.80;;
52974;SDS011;38839;45.186;5.720;2023-07-22T05:47:40;4.03;;;1.80;;
52974;SDS011;38839;45.186;5.720;2023-07-22T05:50:05;3.97;;;2.10;;
52974;SDS011;38839;45.186;5.720;2023-07-22T05:52:31;3.38;;;2.28;;
52974;SDS011;38839;45.186;5.720;2023-07-22T05:54:57;2.65;;;1.73;;
52974;SDS011;38839;45.186;5.720;2023-07-22T05:57:22;3.95;;;1.80;;
52974;SDS011;38839;45.186;5.720;2023-07-22T05:59:47;2.45;;;2.00;;
52974;SDS011;38839;45.186;5.720;2023-07-22T06:02:13;2.63;;;1.98;;
52974;SDS011;38839;45.186;5.720;2023-07-22T06:04:38;3.15;;;1.80;;
52974;SDS011;38839;45.186;5.720;2023-07-22T06:07:04;3.33;;;1.80;;
52974;SDS011;38839;45.186;5.720;2023-07-22T06:09:29;3.55;;;2.17;;
52974;SDS011;38839;45.186;5.720;2023-07-22T06:11:55;2.20;;;1.85;;
52974;SDS011;38839;45.186;5.720;2023-07-22T06:14:20;4.53;;;2.05;;
52974;SDS011;38839;45.186;5.720;2023-07-22T06:16:45;1.63;;;1.50;;
52974;SDS011;38839;45.186;5.720;2023-07-22T06:19:11;2.67;;;2.00;;
52974;SDS011;38839;45.186;5.720;2023-07-22T06:21:36;5.00;;;2.53;;
52974;SDS011;38839;45.186;5.720;2023-07-22T06:24:01;2.65;;;2.30;;
52974;SDS011;38839;45.186;5.720;2023-07-22T06:26:27;3.78;;;1.77;;
52974;SDS011;38839;45.186;5.720;2023-07-22T06:28:52;3.22;;;1.83;;
52974;SDS011;38839;45.186;5.720;2023-07-22T06:31:17;2.13;;;1.92;;
52974;SDS011;38839;45.186;5.720;2023-07-22T06:33:43;5.10;;;2.35;;
52974;SDS011;38839;45.186;5.720;2023-07-22T06:36:09;2.42;;;2.03;;
52974;SDS011;38839;45.186;5.720;2023-07-22T06:38:34;4.57;;;2.25;;
52974;SDS011;38839;45.186;5.720;2023-07-22T06:40:59;8.88;;;2.20;;
52974;SDS011;38839;45.186;5.720;2023-07-22T06:43:25;3.47;;;2.08;;
52974;SDS011;38839;45.186;5.720;2023-07-22T06:45:50;2.65;;;2.20;;
52974;SDS011;38839;45.186;5.720;2023-07-22T06:48:15;4.20;;;1.77;;
52974;SDS011;38839;45.186;5.720;2023-07-22T06:50:46;4.22;;;1.83;;
52974;SDS011;38839;45.186;5.720;2023-07-22T06:53:12;3.47;;;2.58;;
52974;SDS011;38839;45.186;5.720;2023-07-22T06:55:39;5.95;;;2.28;;
52974;SDS011;38839;45.186;5.720;2023-07-22T06:58:05;2.30;;;1.75;;
52974;SDS011;38839;45.186;5.720;2023-07-22T07:00:30;4.95;;;2.13;;
52974;SDS011;38839;45.186;5.720;2023-07-22T07:02:55;2.40;;;1.75;;
52974;SDS011;38839;45.186;5.720;2023-07-22T07:05:21;3.28;;;2.20;;
52974;SDS011;38839;45.186;5.720;2023-07-22T07:07:47;3.95;;;1.80;;
52974;SDS011;38839;45.186;5.720;2023-07-22T07:10:14;4.43;;;2.20;;
52974;SDS011;38839;45.186;5.720;2023-07-22T07:12:39;4.63;;;2.33;;
52974;SDS011;38839;45.186;5.720;2023-07-22T07:15:05;3.53;;;2.10;;
52974;SDS011;38839;45.186;5.720;2023-07-22T07:17:30;2.47;;;2.15;;
52974;SDS011;38839;45.186;5.720;2023-07-22T07:19:56;2.75;;;1.83;;
52974;SDS011;38839;45.186;5.720;2023-07-22T07:22:21;4.38;;;2.40;;
52974;SDS011;38839;45.186;5.720;2023-07-22T07:24:47;3.70;;;1.98;;
52974;SDS011;38839;45.186;5.720;2023-07-22T07:27:12;4.28;;;2.08;;
52974;SDS011;38839;45.186;5.720;2023-07-22T07:29:37;2.75;;;1.98;;
52974;SDS011;38839;45.186;5.720;2023-07-22T07:32:03;2.67;;;1.73;;
52974;SDS011;38839;45.186;5.720;2023-07-22T07:34:29;3.17;;;2.17;;
52974;SDS011;38839;45.186;5.720;2023-07-22T07:36:54;3.63;;;2.00;;
52974;SDS011;38839;45.186;5.720;2023-07-22T07:39:20;4.15;;;2.15;;
52974;SDS011;38839;45.186;5.720;2023-07-22T07:41:45;3.63;;;2.08;;
52974;SDS011;38839;45.186;5.720;2023-07-22T07:44:10;4.63;;;2.15;;
52974;SDS011;38839;45.186;5.720;2023-07-22T07:46:36;4.03;;;2.20;;
52974;SDS011;38839;45.186;5.720;2023-07-22T07:49:01;3.13;;;2.10;;
52974;SDS011;38839;45.186;5.720;2023-07-22T07:51:28;4.30;;;2.38;;
52974;SDS011;38839;45.186;5.720;2023-07-22T07:53:54;2.55;;;1.98;;
52974;SDS011;38839;45.186;5.720;2023-07-22T07:56:21;2.25;;;1.85;;
52974;SDS011;38839;45.186;5.720;2023-07-22T07:58:47;3.42;;;2.17;;
52974;SDS011;38839;45.186;5.720;2023-07-22T08:01:14;2.53;;;2.10;;
52974;SDS011;38839;45.186;5.720;2023-07-22T08:03:40;2.97;;;2.30;;
52974;SDS011;38839;45.186;5.720;2023-07-22T08:06:06;4.05;;;2.35;;
52974;SDS011;38839;45.186;5.720;2023-07-22T08:08:32;3.00;;;2.17;;
52974;SDS011;38839;45.186;5.720;2023-07-22T08:11:02;3.28;;;2.00;;
52974;SDS011;38839;45.186;5.720;2023-07-22T08:13:27;2.60;;;2.13;;
52974;SDS011;38839;45.186;5.720;2023-07-22T08:15:56;3.10;;;2.13;;
52974;SDS011;38839;45.186;5.720;2023-07-22T08:18:22;3.53;;;2.47;;
52974;SDS011;38839;45.186;5.720;2023-07-22T08:20:49;2.28;;;2.08;;
52974;SDS011;38839;45.186;5.720;2023-07-22T08:23:15;2.65;;;2.00;;
52974;SDS011;38839;45.186;5.720;2023-07-22T08:25:41;2.20;;;1.90;;
52974;SDS011;38839;45.186;5.720;2023-07-22T08:28:06;3.55;;;2.35;;
52974;SDS011;38839;45.186;5.720;2023-07-22T08:30:32;2.45;;;1.80;;
52974;SDS011;38839;45.186;5.720;2023-07-22T08:32:57;2.27;;;2.07;;
52974;SDS011;38839;45.186;5.720;2023-07-22T08:35:22;2.92;;;1.92;;
52974;SDS011;38839;45.186;5.720;2023-07-22T08:37:48;2.13;;;1.77;;
52974;SDS011;38839;45.186;5.720;2023-07-22T08:40:13;2.15;;;1.83;;
52974;SDS011;38839;45.186;5.720;2023-07-22T08:42:39;2.58;;;2.30;;
52974;SDS011;38839;45.186;5.720;2023-07-22T08:45:06;2.00;;;1.80;;
52974;SDS011;38839;45.186;5.720;2023-07-22T08:47:38;4.80;;;2.22;;
52974;SDS011;38839;45.186;5.720;2023-07-22T08:50:09;4.00;;;2.13;;
52974;SDS011;38839;45.186;5.720;2023-07-22T08:52:36;1.90;;;1.70;;
52974;SDS011;38839;45.186;5.720;2023-07-22T08:55:02;3.58;;;2.28;;
52974;SDS011;38839;45.186;5.720;2023-07-22T08:57:29;2.72;;;2.15;;
52974;SDS011;38839;45.186;5.720;2023-07-22T08:59:56;4.88;;;2.35;;
52974;SDS011;38839;45.186;5.720;2023-07-22T09:02:22;4.40;;;2.38;;
52974;SDS011;38839;45.186;5.720;2023-07-22T09:04:49;3.75;;;1.90;;
52974;SDS011;38839;45.186;5.720;2023-07-22T09:07:15;3.03;;;1.80;;
52974;SDS011;38839;45.186;5.720;2023-07-22T09:09:44;4.18;;;2.10;;
52974;SDS011;38839;45.186;5.720;2023-07-22T09:12:11;4.65;;;2.05;;
52974;SDS011;38839;45.186;5.720;2023-07-22T09:14:39;3.77;;;2.30;;
52974;SDS011;38839;45.186;5.720;2023-07-22T09:17:05;3.33;;;2.20;;
52974;SDS011;38839;45.186;5.720;2023-07-22T09:19:31;2.72;;;2.03;;
52974;SDS011;38839;45.186;5.720;2023-07-22T09:21:56;2.53;;;2.17;;
52974;SDS011;38839;45.186;5.720;2023-07-22T09:24:24;2.10;;;1.90;;
52974;SDS011;38839;45.186;5.720;2023-07-22T09:26:50;4.47;;;1.95;;
52974;SDS011;38839;45.186;5.720;2023-07-22T09:29:16;1.98;;;1.80;;
52974;SDS011;38839;45.186;5.720;2023-07-22T09:31:49;2.63;;;1.92;;
52974;SDS011;38839;45.186;5.720;2023-07-22T09:34:16;1.90;;;1.40;;
52974;SDS011;38839;45.186;5.720;2023-07-22T09:36:48;1.98;;;1.80;;
52974;SDS011;38839;45.186;5.720;2023-07-22T09:39:17;2.25;;;1.83;;
52974;SDS011;38839;45.186;5.720;2023-07-22T09:41:43;2.45;;;1.77;;
52974;SDS011;38839;45.186;5.720;2023-07-22T09:44:11;2.00;;;1.70;;
52974;SDS011;38839;45.186;5.720;2023-07-22T09:46:39;3.55;;;1.70;;
52974;SDS011;38839;45.186;5.720;2023-07-22T09:49:11;5.28;;;1.40;;
52974;SDS011;38839;45.186;5.720;2023-07-22T09:51:42;2.50;;;1.73;;
52974;SDS011;38839;45.186;5.720;2023-07-22T09:54:21;4.57;;;3.40;;
52974;SDS011;38839;45.186;5.720;2023-07-22T09:56:56;1.65;;;1.48;;
52974;SDS011;38839;45.186;5.720;2023-07-22T09:59:28;2.72;;;1.48;;
52974;SDS011;38839;45.186;5.720;2023-07-22T10:02:04;1.95;;;1.77;;
52974;SDS011;38839;45.186;5.720;2023-07-22T10:04:35;3.67;;;1.60;;
52974;SDS011;38839;45.186;5.720;2023-07-22T10:07:09;2.30;;;1.80;;
52974;SDS011;38839;45.186;5.720;2023-07-22T10:09:39;5.20;;;1.35;;
52974;SDS011;38839;45.186;5.720;2023-07-22T10:12:09;2.30;;;1.70;;
52974;SDS011;38839;45.186;5.720;2023-07-22T10:14:41;3.75;;;1.75;;
52974;SDS011;38839;45.186;5.720;2023-07-22T10:17:12;1.70;;;1.60;;
52974;SDS011;38839;45.186;5.720;2023-07-22T10:19:45;2.08;;;1.60;;
52974;SDS011;38839;45.186;5.720;2023-07-22T10:22:15;2.90;;;2.08;;
52974;SDS011;38839;45.186;5.720;2023-07-22T10:24:48;3.38;;;1.88;;
52974;SDS011;38839;45.186;5.720;2023-07-22T10:27:20;2.40;;;1.65;;
52974;SDS011;38839;45.186;5.720;2023-07-22T10:29:54;2.08;;;1.42;;
52974;SDS011;38839;45.186;5.720;2023-07-22T10:32:22;1.80;;;1.63;;
52974;SDS011;38839;45.186;5.720;2023-07-22T10:34:58;1.88;;;1.35;;
52974;SDS011;38839;45.186;5.720;2023-07-22T10:42:41;1.88;;;1.60;;
52974;SDS011;38839;45.186;5.720;2023-07-22T10:45:27;3.05;;;1.70;;
52974;SDS011;38839;45.186;5.720;2023-07-22T10:48:05;2.17;;;1.80;;
52974;SDS011;38839;45.186;5.720;2023-07-22T10:50:52;2.45;;;1.45;;
52974;SDS011;38839;45.186;5.720;2023-07-22T10:59:16;3.00;;;1.60;;
52974;SDS011;38839;45.186;5.720;2023-07-22T11:01:24;1.95;;;1.77;;
52974;SDS011;38839;45.186;5.720;2023-07-22T11:12:01;3.13;;;2.00;;
52974;SDS011;38839;45.186;5.720;2023-07-22T11:14:29;2.15;;;1.50;;
52974;SDS011;38839;45.186;5.720;2023-07-22T11:16:56;2.50;;;1.60;;
52974;SDS011;38839;45.186;5.720;2023-07-22T11:19:23;2.45;;;1.92;;
52974;SDS011;38839;45.186;5.720;2023-07-22T11:21:51;3.08;;;1.98;;
52974;SDS011;38839;45.186;5.720;2023-07-22T11:24:17;2.53;;;1.60;;
52974;SDS011;38839;45.186;5.720;2023-07-22T11:26:44;1.90;;;1.60;;
52974;SDS011;38839;45.186;5.720;2023-07-22T11:29:10;2.60;;;1.90;;
52974;SDS011;38839;45.186;5.720;2023-07-22T11:31:38;3.25;;;1.40;;
52974;SDS011;38839;45.186;5.720;2023-07-22T11:34:09;2.45;;;1.38;;
52974;SDS011;38839;45.186;5.720;2023-07-22T11:36:35;3.40;;;1.35;;
52974;SDS011;38839;45.186;5.720;2023-07-22T11:39:04;1.80;;;1.50;;
52974;SDS011;38839;45.186;5.720;2023-07-22T11:41:32;3.33;;;1.50;;
52974;SDS011;38839;45.186;5.720;2023-07-22T11:43:58;2.25;;;1.50;;
52974;SDS011;38839;45.186;5.720;2023-07-22T11:46:24;3.55;;;1.38;;
52974;SDS011;38839;45.186;5.720;2023-07-22T11:48:51;1.98;;;1.50;;
52974;SDS011;38839;45.186;5.720;2023-07-22T11:51:18;2.50;;;1.17;;
52974;SDS011;38839;45.186;5.720;2023-07-22T11:53:49;1.80;;;1.47;;
52974;SDS011;38839;45.186;5.720;2023-07-22T11:56:27;1.50;;;1.40;;
52974;SDS011;38839;45.186;5.720;2023-07-22T11:58:56;4.53;;;1.30;;
52974;SDS011;38839;45.186;5.720;2023-07-22T12:01:22;1.35;;;1.25;;
52974;SDS011;38839;45.186;5.720;2023-07-22T12:03:49;1.90;;;1.40;;
52974;SDS011;38839;45.186;5.720;2023-07-22T12:06:20;1.63;;;1.40;;
52974;SDS011;38839;45.186;5.720;2023-07-22T12:08:46;1.80;;;1.50;;
52974;SDS011;38839;45.186;5.720;2023-07-22T12:11:16;1.20;;;1.02;;
52974;SDS011;38839;45.186;5.720;2023-07-22T12:13:43;1.45;;;1.27;;
52974;SDS011;38839;45.186;5.720;2023-07-22T12:16:20;1.50;;;1.40;;
52974;SDS011;38839;45.186;5.720;2023-07-22T12:18:50;2.55;;;1.13;;
52974;SDS011;38839;45.186;5.720;2023-07-22T12:21:19;2.72;;;1.20;;
52974;SDS011;38839;45.186;5.720;2023-07-22T12:23:45;1.83;;;1.48;;
52974;SDS011;38839;45.186;5.720;2023-07-22T12:26:10;1.77;;;1.48;;
52974;SDS011;38839;45.186;5.720;2023-07-22T12:28:36;1.02;;;1.00;;
52974;SDS011;38839;45.186;5.720;2023-07-22T12:31:02;1.40;;;1.30;;
52974;SDS011;38839;45.186;5.720;2023-07-22T12:33:28;1.50;;;1.40;;
52974;SDS011;38839;45.186;5.720;2023-07-22T12:35:54;2.78;;;1.40;;
52974;SDS011;38839;45.186;5.720;2023-07-22T12:38:20;2.58;;;1.90;;
52974;SDS011;38839;45.186;5.720;2023-07-22T12:40:46;2.53;;;1.25;;
52974;SDS011;38839;45.186;5.720;2023-07-22T12:43:11;1.00;;;1.00;;
52974;SDS011;38839;45.186;5.720;2023-07-22T12:45:36;3.33;;;1.60;;
52974;SDS011;38839;45.186;5.720;2023-07-22T12:48:02;1.10;;;1.00;;
52974;SDS011;38839;45.186;5.720;2023-07-22T12:50:29;1.73;;;1.50;;
52974;SDS011;38839;45.186;5.720;2023-07-22T12:52:54;1.20;;;1.08;;
52974;SDS011;38839;45.186;5.720;2023-07-22T12:55:20;1.45;;;1.20;;
52974;SDS011;38839;45.186;5.720;2023-07-22T12:57:45;1.48;;;1.20;;
52974;SDS011;38839;45.186;5.720;2023-07-22T13:00:11;1.35;;;1.20;;
52974;SDS011;38839;45.186;5.720;2023-07-22T13:02:37;1.63;;;1.40;;
52974;SDS011;38839;45.186;5.720;2023-07-22T13:05:03;1.77;;;1.20;;
52974;SDS011;38839;45.186;5.720;2023-07-22T13:07:31;1.33;;;1.10;;
52974;SDS011;38839;45.186;5.720;2023-07-22T13:09:56;1.33;;;1.23;;
52974;SDS011;38839;45.186;5.720;2023-07-22T13:12:24;1.20;;;1.10;;
52974;SDS011;38839;45.186;5.720;2023-07-22T13:14:49;1.48;;;1.10;;
52974;SDS011;38839;45.186;5.720;2023-07-22T13:17:14;1.90;;;1.00;;
52974;SDS011;38839;45.186;5.720;2023-07-22T13:19:40;1.85;;;1.30;;
52974;SDS011;38839;45.186;5.720;2023-07-22T13:22:05;1.40;;;1.30;;
52974;SDS011;38839;45.186;5.720;2023-07-22T13:24:30;1.20;;;1.10;;
52974;SDS011;38839;45.186;5.720;2023-07-22T13:26:56;1.35;;;1.25;;
52974;SDS011;38839;45.186;5.720;2023-07-22T13:29:21;2.25;;;1.50;;
52974;SDS011;38839;45.186;5.720;2023-07-22T13:31:46;2.90;;;1.10;;
52974;SDS011;38839;45.186;5.720;2023-07-22T13:34:12;2.58;;;1.70;;
52974;SDS011;38839;45.186;5.720;2023-07-22T13:36:37;1.77;;;1.20;;
52974;SDS011;38839;45.186;5.720;2023-07-22T13:39:03;1.73;;;1.38;;
52974;SDS011;38839;45.186;5.720;2023-07-22T13:41:28;1.73;;;1.00;;
52974;SDS011;38839;45.186;5.720;2023-07-22T13:43:53;1.58;;;1.30;;
52974;SDS011;38839;45.186;5.720;2023-07-22T13:46:19;2.25;;;1.10;;
52974;SDS011;38839;45.186;5.720;2023-07-22T13:48:44;1.17;;;1.08;;
52974;SDS011;38839;45.186;5.720;2023-07-22T13:51:10;1.05;;;0.95;;
52974;SDS011;38839;45.186;5.720;2023-07-22T13:53:35;1.33;;;1.10;;
52974;SDS011;38839;45.186;5.720;2023-07-22T13:56:01;1.77;;;1.30;;
52974;SDS011;38839;45.186;5.720;2023-07-22T13:58:26;2.35;;;1.10;;
52974;SDS011;38839;45.186;5.720;2023-07-22T14:00:52;1.23;;;1.00;;
52974;SDS011;38839;45.186;5.720;2023-07-22T14:03:17;3.30;;;1.30;;
52974;SDS011;38839;45.186;5.720;2023-07-22T14:05:42;1.88;;;1.00;;
52974;SDS011;38839;45.186;5.720;2023-07-22T14:08:08;0.98;;;0.88;;
52974;SDS011;38839;45.186;5.720;2023-07-22T14:10:33;1.35;;;1.00;;
52974;SDS011;38839;45.186;5.720;2023-07-22T14:12:59;1.25;;;1.15;;
52974;SDS011;38839;45.186;5.720;2023-07-22T14:15:24;1.20;;;1.00;;
52974;SDS011;38839;45.186;5.720;2023-07-22T14:17:50;1.33;;;1.17;;
52974;SDS011;38839;45.186;5.720;2023-07-22T14:20:15;1.73;;;1.02;;
52974;SDS011;38839;45.186;5.720;2023-07-22T14:22:41;2.15;;;1.10;;
52974;SDS011;38839;45.186;5.720;2023-07-22T14:25:07;1.42;;;1.25;;
52974;SDS011;38839;45.186;5.720;2023-07-22T14:27:33;1.15;;;1.08;;
52974;SDS011;38839;45.186;5.720;2023-07-22T14:29:59;1.88;;;1.33;;
52974;SDS011;38839;45.186;5.720;2023-07-22T14:32:25;1.33;;;1.17;;
52974;SDS011;38839;45.186;5.720;2023-07-22T14:34:50;1.20;;;1.00;;
52974;SDS011;38839;45.186;5.720;2023-07-22T14:37:16;3.70;;;1.30;;
52974;SDS011;38839;45.186;5.720;2023-07-22T14:39:42;1.75;;;1.20;;
52974;SDS011;38839;45.186;5.720;2023-07-22T14:42:07;1.30;;;1.10;;
52974;SDS011;38839;45.186;5.720;2023-07-22T14:44:32;2.85;;;0.90;;
52974;SDS011;38839;45.186;5.720;2023-07-22T14:46:58;1.40;;;1.30;;
52974;SDS011;38839;45.186;5.720;2023-07-22T14:49:23;1.60;;;1.10;;
52974;SDS011;38839;45.186;5.720;2023-07-22T14:51:49;1.63;;;1.15;;
52974;SDS011;38839;45.186;5.720;2023-07-22T14:54:14;1.85;;;1.20;;
52974;SDS011;38839;45.186;5.720;2023-07-22T14:56:39;1.20;;;1.10;;
52974;SDS011;38839;45.186;5.720;2023-07-22T14:59:05;1.05;;;1.05;;
52974;SDS011;38839;45.186;5.720;2023-07-22T15:01:38;1.52;;;1.20;;
52974;SDS011;38839;45.186;5.720;2023-07-22T15:04:04;1.98;;;1.40;;
52974;SDS011;38839;45.186;5.720;2023-07-22T15:06:30;1.10;;;1.00;;